Time;durP1;ratioP1;P1;durP2;ratioP2;P2;SDS_P1;SDS_P2;PMS_P1;PMS_P2;Temp;Humidity;BMP_temperature;BMP_pressure;BME280_temperature;BME280_humidity;BME280_pressure;Samples;Min_cycle;Max_cycle;Signal;HPM_P1;HPM_P2
2021/01/06 00:02:04;;;;;;;;;;;;;;;;;;5072917;28;19908;-78
2021/01/06 00:04:30;;;;;;;;;;;;;;;;;;5076605;28;19909;-78
2021/01/06 00:06:56;;;;;;;;;;;;;;;;;;5076475;28;19908;-79
2021/01/06 00:09:22;;;;;;;;;;;;;;;;;;5076218;28;20473;-78
2021/01/06 00:11:48;;;;;;;;;;;;;;;;;;5076447;28;20431;-77
2021/01/06 00:14:14;;;;;;;;;;;;;;;;;;5076122;28;20356;-76
2021/01/06 00:16:40;;;;;;;;;;;;;;;;;;5076438;28;20343;-79
2021/01/06 00:19:06;;;;;;;;;;;;;;;;;;5076171;28;20351;-79
2021/01/06 00:21:32;;;;;;;;;;;;;;;;;;5076124;28;19916;-78
2021/01/06 00:24:01;;;;;;;;;;;;;;;;;;5076195;28;19996;-77
2021/01/06 00:26:27;;;;;;;;;;;;;;;;;;5076024;28;19905;-76
2021/01/06 00:28:53;;;;;;;;;;;;;;;;;;5076047;28;20045;-79
2021/01/06 00:31:19;;;;;;;;;;;;;;;;;;5074633;28;19912;-78
2021/01/06 00:33:45;;;;;;;;;;;;;;;;;;5075751;28;19909;-76
2021/01/06 00:36:11;;;;;;;;;;;;;;;;;;5075857;28;19909;-78
2021/01/06 00:38:37;;;;;;;;;;;;;;;;;;5075930;28;19995;-77
2021/01/06 00:41:03;;;;;;;;;;;;;;;;;;5075888;28;19916;-78
2021/01/06 00:43:29;;;;;;;;;;;;;;;;;;5075709;28;19900;-77
2021/01/06 00:45:54;;;;;;;;;;;;;;;;;;5075774;28;19943;-77
2021/01/06 00:48:20;;;;;;;;;;;;;;;;;;5075468;28;19911;-79
2021/01/06 00:50:46;;;;;;;;;;;;;;;;;;5075702;28;19904;-79
2021/01/06 00:53:12;;;;;;;;;;;;;;;;;;5075687;28;19991;-78
2021/01/06 00:55:38;;;;;;;;;;;;;;;;;;5075461;28;19918;-79
2021/01/06 00:58:04;;;;;;;;;;;;;;;;;;5075693;28;19983;-76
2021/01/06 01:00:30;;;;;;;;;;;;;;;;;;5075393;28;19904;-76
2021/01/06 01:02:56;;;;;;;;;;;;;;;;;;5075450;28;19950;-77
2021/01/06 01:05:22;;;;;;;;;;;;;;;;;;5075427;28;19913;-78
2021/01/06 01:07:48;;;;;;;;;;;;;;;;;;5075564;28;19970;-76
2021/01/06 01:10:14;;;;;;;;;;;;;;;;;;5075198;28;19916;-77
2021/01/06 01:12:40;;;;;;;;;;;;;;;;;;5074983;28;19927;-77
2021/01/06 01:15:06;;;;;;;;;;;;;;;;;;5075139;28;20270;-76
2021/01/06 01:17:32;;;;;;;;;;;;;;;;;;5075074;28;20396;-76
2021/01/06 01:19:58;;;;;;;;;;;;;;;;;;5075253;28;19904;-77
2021/01/06 01:22:24;;;;;;;;;;;;;;;;;;5075111;28;19908;-75
2021/01/06 01:24:50;;;;;;;;;;;;;;;;;;5074905;28;19931;-77
2021/01/06 01:27:16;;;;;;;;;;;;;;;;;;5074889;28;19911;-79
2021/01/06 01:29:42;;;;;;;;;;;;;;;;;;5072954;28;19936;-78
2021/01/06 01:32:08;;;;;;;;;;;;;;;;;;5075056;28;20425;-78
2021/01/06 01:34:34;;;;;;;;;;;;;;;;;;5074660;28;19917;-77
2021/01/06 01:37:00;;;;;;;;;;;;;;;;;;5074671;28;19904;-78
2021/01/06 01:39:26;;;;;;;;;;;;;;;;;;5074937;28;19905;-75
2021/01/06 01:41:52;;;;;;;;;;;;;;;;;;5074182;28;19911;-78
2021/01/06 01:44:17;;;;;;;;;;;;;;;;;;5074399;28;19908;-80
2021/01/06 01:46:44;;;;;;;;;;;;;;;;;;5074548;28;19908;-76
2021/01/06 01:49:09;;;;;;;;;;;;;;;;;;5074637;28;19919;-77
2021/01/06 01:51:35;;;;;;;;;;;;;;;;;;5074584;28;19909;-77
2021/01/06 01:54:03;;;;;;;;;;;;;;;;;;5074222;28;19909;-76
2021/01/06 01:56:29;;;;;;;;;;;;;;;;;;5074455;28;19950;-76
2021/01/06 01:58:55;;;;;;;;;;;;;;;;;;5072793;28;19901;-77
2021/01/06 02:01:21;;;;;;;;;;;;;;;;;;5074414;28;19910;-76
2021/01/06 02:03:47;;;;;;;;;;;;;;;;;;5074264;28;19907;-78
2021/01/06 02:06:13;;;;;;;;;;;;;;;;;;5074315;28;19967;-77
2021/01/06 02:08:39;;;;;;;;;;;;;;;;;;5074088;28;19948;-78
2021/01/06 02:11:05;;;;;;;;;;;;;;;;;;5073956;28;19901;-78
2021/01/06 02:13:31;;;;;;;;;;;;;;;;;;5072751;28;19911;-76
2021/01/06 02:15:57;;;;;;;;;;;;;;;;;;5073836;28;19936;-78
2021/01/06 02:18:23;;;;;;;;;;;;;;;;;;5072762;28;19911;-77
2021/01/06 02:20:49;;;;;;;;;;;;;;;;;;5073862;28;19904;-78
2021/01/06 02:23:15;;;;;;;;;;;;;;;;;;5073766;28;20007;-79
2021/01/06 02:25:41;;;;;;;;;;;;;;;;;;5073244;28;19958;-75
2021/01/06 02:28:08;;;;;;;;;;;;;;;;;;5073487;28;20356;-76
2021/01/06 02:30:34;;;;;;;;;;;;;;;;;;5073676;28;19916;-76
2021/01/06 02:33:00;;;;;;;;;;;;;;;;;;5073428;28;19905;-79
2021/01/06 02:35:26;;;;;;;;;;;;;;;;;;5073753;28;20317;-77
2021/01/06 02:37:52;;;;;;;;;;;;;;;;;;5072507;28;19911;-76
2021/01/06 02:40:18;;;;;;;;;;;;;;;;;;5072247;28;20363;-78
2021/01/06 02:42:44;;;;;;;;;;;;;;;;;;5073262;28;19904;-79
2021/01/06 02:45:10;;;;;;;;;;;;;;;;;;5073212;28;20237;-78
2021/01/06 02:47:35;;;;;;;;;;;;;;;;;;5073543;28;19908;-77
2021/01/06 02:50:01;;;;;;;;;;;;;;;;;;5072736;28;19908;-78
2021/01/06 02:52:27;;;;;;;;;;;;;;;;;;5073354;28;19905;-78
2021/01/06 02:54:53;;;;;;;;;;;;;;;;;;5073332;28;20347;-78
2021/01/06 02:57:19;;;;;;;;;;;;;;;;;;5072986;28;20497;-76
2021/01/06 02:59:45;;;;;;;;;;;;;;;;;;5073304;28;20935;-76
2021/01/06 03:02:11;;;;;;;;;;;;;;;;;;5072990;28;19971;-77
2021/01/06 03:04:37;;;;;;;;;;;;;;;;;;5073213;28;19940;-79
2021/01/06 03:07:03;;;;;;;;;;;;;;;;;;5073139;28;19908;-76
2021/01/06 03:09:29;;;;;;;;;;;;;;;;;;5072687;28;19969;-77
2021/01/06 03:11:55;;;;;;;;;;;;;;;;;;5073077;28;19955;-79
2021/01/06 03:14:21;;;;;;;;;;;;;;;;;;5072609;28;19956;-77
2021/01/06 03:16:47;;;;;;;;;;;;;;;;;;5073067;28;19908;-75
2021/01/06 03:19:13;;;;;;;;;;;;;;;;;;5072841;28;19916;-78
2021/01/06 03:21:39;;;;;;;;;;;;;;;;;;5072821;28;19930;-77
2021/01/06 03:24:05;;;;;;;;;;;;;;;;;;5072889;28;19932;-76
2021/01/06 03:26:31;;;;;;;;;;;;;;;;;;5072261;28;19905;-79
2021/01/06 03:28:56;;;;;;;;;;;;;;;;;;5072869;28;19904;-77
2021/01/06 03:31:22;;;;;;;;;;;;;;;;;;5072593;28;20002;-76
2021/01/06 03:33:48;;;;;;;;;;;;;;;;;;5072625;28;19909;-76
2021/01/06 03:36:14;;;;;;;;;;;;;;;;;;5072762;28;19928;-78
2021/01/06 03:38:40;;;;;;;;;;;;;;;;;;5072579;28;19904;-77
2021/01/06 03:41:06;;;;;;;;;;;;;;;;;;5072696;28;19997;-78
2021/01/06 03:43:32;;;;;;;;;;;;;;;;;;5072750;28;20387;-77
2021/01/06 03:45:58;;;;;;;;;;;;;;;;;;5072648;28;20050;-77
2021/01/06 03:48:24;;;;;;;;;;;;;;;;;;5072546;28;19962;-77
2021/01/06 03:50:51;;;;;;;;;;;;;;;;;;5072495;28;19904;-79
2021/01/06 03:53:17;;;;;;;;;;;;;;;;;;5071283;28;19904;-76
2021/01/06 03:55:44;;;;;;;;;;;;;;;;;;5072299;28;20007;-78
2021/01/06 03:58:10;;;;;;;;;;;;;;;;;;5072663;28;19961;-77
2021/01/06 04:00:35;;;;;;;;;;;;;;;;;;5072380;28;19909;-77
2021/01/06 04:03:01;;;;;;;;;;;;;;;;;;5072684;28;19904;-77
2021/01/06 04:05:48;;;;;;;;;;;;;;;;;;5071466;28;20011;-80
2021/01/06 04:08:14;;;;;;;;;;;;;;;;;;5071167;28;19905;-78
2021/01/06 04:10:40;;;;;;;;;;;;;;;;;;5071392;28;19920;-78
2021/01/06 04:13:06;;;;;;;;;;;;;;;;;;5071552;28;19958;-76
2021/01/06 04:15:32;;;;;;;;;;;;;;;;;;5070961;28;19916;-78
2021/01/06 04:17:59;;;;;;;;;;;;;;;;;;5070778;28;19958;-76
2021/01/06 04:20:24;;;;;;;;;;;;;;;;;;5071186;28;19904;-79
2021/01/06 04:22:50;;;;;;;;;;;;;;;;;;5072165;28;19951;-76
2021/01/06 04:25:16;;;;;;;;;;;;;;;;;;5072377;28;19915;-77
2021/01/06 04:27:42;;;;;;;;;;;;;;;;;;5072066;28;19909;-79
2021/01/06 04:30:08;;;;;;;;;;;;;;;;;;5072327;28;20007;-76
2021/01/06 04:32:34;;;;;;;;;;;;;;;;;;5071998;28;20306;-76
2021/01/06 04:35:00;;;;;;;;;;;;;;;;;;5072221;28;20355;-79
2021/01/06 04:37:26;;;;;;;;;;;;;;;;;;5072087;28;20298;-78
2021/01/06 04:39:52;;;;;;;;;;;;;;;;;;5071969;28;20330;-76
2021/01/06 04:42:18;;;;;;;;;;;;;;;;;;5072157;28;19926;-76
2021/01/06 04:44:44;;;;;;;;;;;;;;;;;;5071901;28;19904;-77
2021/01/06 04:47:10;;;;;;;;;;;;;;;;;;5072138;28;19908;-77
2021/01/06 04:49:36;;;;;;;;;;;;;;;;;;5074879;28;20313;-76
2021/01/06 04:52:02;;;;;;;;;;;;;;;;;;5075623;28;20405;-76
2021/01/06 04:54:28;;;;;;;;;;;;;;;;;;5075606;28;20335;-79
2021/01/06 04:56:53;;;;;;;;;;;;;;;;;;5075482;28;20251;-76
2021/01/06 04:59:19;;;;;;;;;;;;;;;;;;5075664;28;19904;-76
2021/01/06 05:01:45;;;;;;;;;;;;;;;;;;5075396;28;19911;-77
2021/01/06 05:04:11;;;;;;;;;;;;;;;;;;5075506;28;19949;-78
2021/01/06 05:06:37;;;;;;;;;;;;;;;;;;5074027;28;19908;-78
2021/01/06 05:09:03;;;;;;;;;;;;;;;;;;5075006;28;19927;-76
2021/01/06 05:11:29;;;;;;;;;;;;;;;;;;5075444;28;19908;-76
2021/01/06 05:13:55;;;;;;;;;;;;;;;;;;5075101;28;19915;-79
2021/01/06 05:16:21;;;;;;;;;;;;;;;;;;5075306;28;19951;-76
2021/01/06 05:18:47;;;;;;;;;;;;;;;;;;5074933;28;19908;-78
2021/01/06 05:21:13;;;;;;;;;;;;;;;;;;5074401;28;19908;-77
2021/01/06 05:23:39;;;;;;;;;;;;;;;;;;5075156;28;19915;-77
2021/01/06 05:26:05;;;;;;;;;;;;;;;;;;5074876;28;19909;-79
2021/01/06 05:28:31;;;;;;;;;;;;;;;;;;5075040;28;19904;-77
2021/01/06 05:30:58;;;;;;;;;;;;;;;;;;5074939;28;19904;-80
2021/01/06 05:33:24;;;;;;;;;;;;;;;;;;5074947;28;19904;-79
2021/01/06 05:35:50;;;;;;;;;;;;;;;;;;5074924;28;19920;-79
2021/01/06 05:38:16;;;;;;;;;;;;;;;;;;5074676;28;19949;-79
2021/01/06 05:40:42;;;;;;;;;;;;;;;;;;5074832;28;19908;-77
2021/01/06 05:43:08;;;;;;;;;;;;;;;;;;5074540;28;19912;-77
2021/01/06 05:45:34;;;;;;;;;;;;;;;;;;5074795;28;20379;-77
2021/01/06 05:48:00;;;;;;;;;;;;;;;;;;5074630;28;19981;-80
2021/01/06 05:50:25;;;;;;;;;;;;;;;;;;5074289;28;19912;-80
2021/01/06 05:52:51;;;;;;;;;;;;;;;;;;5074319;28;19904;-78
2021/01/06 05:55:17;;;;;;;;;;;;;;;;;;5074347;28;19920;-78
2021/01/06 05:57:43;;;;;;;;;;;;;;;;;;5074542;28;19908;-79
2021/01/06 06:00:09;;;;;;;;;;;;;;;;;;5073047;28;20279;-77
2021/01/06 06:02:35;;;;;;;;;;;;;;;;;;5074406;28;19967;-78
2021/01/06 06:05:02;;;;;;;;;;;;;;;;;;5074824;28;19928;-79
2021/01/06 06:07:28;;;;;;;;;;;;;;;;;;5073979;28;19905;-77
2021/01/06 06:09:54;;;;;;;;;;;;;;;;;;5073982;28;20015;-78
2021/01/06 06:12:20;;;;;;;;;;;;;;;;;;5073897;28;19904;-80
2021/01/06 06:14:46;;;;;;;;;;;;;;;;;;5074155;28;19920;-79
2021/01/06 06:17:12;;;;;;;;;;;;;;;;;;5074014;28;19947;-77
2021/01/06 06:19:38;;;;;;;;;;;;;;;;;;5073589;28;19944;-79
2021/01/06 06:22:04;;;;;;;;;;;;;;;;;;5074349;28;19912;-76
2021/01/06 06:24:30;;;;;;;;;;;;;;;;;;5073660;28;19915;-79
2021/01/06 06:26:56;;;;;;;;;;;;;;;;;;5073786;28;20351;-78
2021/01/06 06:29:22;;;;;;;;;;;;;;;;;;5073650;28;20374;-78
2021/01/06 06:31:47;;;;;;;;;;;;;;;;;;5073900;28;20397;-79
2021/01/06 06:34:13;;;;;;;;;;;;;;;;;;5073736;28;20669;-77
2021/01/06 06:36:39;;;;;;;;;;;;;;;;;;5073377;28;19936;-79
2021/01/06 06:39:05;;;;;;;;;;;;;;;;;;5073692;28;20271;-76
2021/01/06 06:41:31;;;;;;;;;;;;;;;;;;5073351;28;20325;-78
2021/01/06 06:43:57;;;;;;;;;;;;;;;;;;5073387;28;20280;-78
2021/01/06 06:46:23;;;;;;;;;;;;;;;;;;5073453;28;19950;-75
2021/01/06 06:48:49;;;;;;;;;;;;;;;;;;5072041;28;20298;-76
2021/01/06 06:51:15;;;;;;;;;;;;;;;;;;5073058;28;19936;-77
2021/01/06 06:53:41;;;;;;;;;;;;;;;;;;5073007;28;19900;-79
2021/01/06 06:56:07;;;;;;;;;;;;;;;;;;5073358;28;19915;-78
2021/01/06 06:58:33;;;;;;;;;;;;;;;;;;5073039;28;19934;-77
2021/01/06 07:00:59;;;;;;;;;;;;;;;;;;5073331;28;19904;-77
2021/01/06 07:03:25;;;;;;;;;;;;;;;;;;5073164;28;19995;-77
2021/01/06 07:05:51;;;;;;;;;;;;;;;;;;5072961;28;19948;-76
2021/01/06 07:08:17;;;;;;;;;;;;;;;;;;5073245;28;19908;-77
2021/01/06 07:10:43;;;;;;;;;;;;;;;;;;5072649;28;19942;-78
2021/01/06 07:13:09;;;;;;;;;;;;;;;;;;5073054;28;19916;-77
2021/01/06 07:15:34;;;;;;;;;;;;;;;;;;5071412;28;19912;-76
2021/01/06 07:18:00;;;;;;;;;;;;;;;;;;5071734;28;19904;-76
2021/01/06 07:20:26;;;;;;;;;;;;;;;;;;5071751;28;20382;-76
2021/01/06 07:22:52;;;;;;;;;;;;;;;;;;5072910;28;20368;-76
2021/01/06 07:25:18;;;;;;;;;;;;;;;;;;5090663;28;20371;-79
2021/01/06 07:27:44;;;;;;;;;;;;;;;;;;5092504;28;20301;-78
2021/01/06 07:30:11;;;;;;;;;;;;;;;;;;5092318;28;19915;-80
2021/01/06 07:32:39;;;;;;;;;;;;;;;;;;5092828;28;19908;-78
2021/01/06 07:35:05;;;;;;;;;;;;;;;;;;5092938;28;19912;-79
2021/01/06 07:37:31;;;;;;;;;;;;;;;;;;5092088;28;20359;-77
2021/01/06 07:39:57;;;;;;;;;;;;;;;;;;5091998;28;19915;-78
2021/01/06 07:42:23;;;;;;;;;;;;;;;;;;5092999;28;19908;-77
2021/01/06 07:44:49;;;;;;;;;;;;;;;;;;5092504;28;19908;-77
2021/01/06 07:47:15;;;;;;;;;;;;;;;;;;5092001;28;20006;-77
2021/01/06 07:49:41;;;;;;;;;;;;;;;;;;5092359;28;19900;-77
2021/01/06 07:52:07;;;;;;;;;;;;;;;;;;5092640;28;19904;-78
2021/01/06 07:54:33;;;;;;;;;;;;;;;;;;5092720;28;20032;-79
2021/01/06 07:56:59;;;;;;;;;;;;;;;;;;5092583;28;19908;-77
2021/01/06 07:59:25;;;;;;;;;;;;;;;;;;5092675;28;19904;-78
2021/01/06 08:01:53;;;;;;;;;;;;;;;;;;5091427;28;19912;-76
2021/01/06 08:04:19;;;;;;;;;;;;;;;;;;5092573;28;20055;-78
2021/01/06 08:06:44;;;;;;;;;;;;;;;;;;5092559;28;19908;-78
2021/01/06 08:09:10;;;;;;;;;;;;;;;;;;5092296;28;19916;-78
2021/01/06 08:11:36;;;;;;;;;;;;;;;;;;5091291;28;19957;-77
2021/01/06 08:14:02;;;;;;;;;;;;;;;;;;5092255;28;19985;-76
2021/01/06 08:16:28;;;;;;;;;;;;;;;;;;5092768;28;19995;-77
2021/01/06 08:18:54;;;;;;;;;;;;;;;;;;5092692;28;19911;-77
2021/01/06 08:21:20;;;;;;;;;;;;;;;;;;5092509;28;19998;-76
2021/01/06 08:23:46;;;;;;;;;;;;;;;;;;5094198;28;19908;-77
2021/01/06 08:26:12;;;;;;;;;;;;;;;;;;5096473;28;20240;-78
2021/01/06 08:28:38;;;;;;;;;;;;;;;;;;5096357;28;19908;-77
2021/01/06 08:31:04;;;;;;;;;;;;;;;;;;5096319;28;19915;-76
2021/01/06 08:33:30;;;;;;;;;;;;;;;;;;5096390;28;19904;-77
2021/01/06 08:36:00;;;;;;;;;;;;;;;;;;5096221;28;20374;-78
2021/01/06 08:38:26;;;;;;;;;;;;;;;;;;5096189;28;19911;-77
2021/01/06 08:40:52;;;;;;;;;;;;;;;;;;5096298;28;19908;-78
2021/01/06 08:43:18;;;;;;;;;;;;;;;;;;5095957;28;19951;-78
2021/01/06 08:45:44;;;;;;;;;;;;;;;;;;5096222;28;19904;-78
2021/01/06 08:48:10;;;;;;;;;;;;;;;;;;5095826;28;19939;-78
2021/01/06 08:50:36;;;;;;;;;;;;;;;;;;5096202;28;19948;-78
2021/01/06 08:53:02;;;;;;;;;;;;;;;;;;5096029;28;19957;-77
2021/01/06 08:55:28;;;;;;;;;;;;;;;;;;5095658;28;19957;-77
2021/01/06 08:57:54;;;;;;;;;;;;;;;;;;5095791;28;19904;-76
2021/01/06 09:00:20;;;;;;;;;;;;;;;;;;5095699;28;19970;-78
2021/01/06 09:02:46;;;;;;;;;;;;;;;;;;5095130;28;19954;-77
2021/01/06 09:05:12;;;;;;;;;;;;;;;;;;5094282;28;19911;-76
2021/01/06 09:07:38;;;;;;;;;;;;;;;;;;5095527;28;19943;-78
2021/01/06 09:10:04;;;;;;;;;;;;;;;;;;5094433;28;19920;-78
2021/01/06 09:12:30;;;;;;;;;;;;;;;;;;5095155;28;20324;-78
2021/01/06 09:14:56;;;;;;;;;;;;;;;;;;5095369;28;19912;-77
2021/01/06 09:17:22;;;;;;;;;;;;;;;;;;5095623;28;20044;-79
2021/01/06 09:19:48;;;;;;;;;;;;;;;;;;5106895;28;19998;-77
2021/01/06 09:22:14;;;;;;;;;;;;;;;;;;5095311;28;19908;-78
2021/01/06 09:24:40;;;;;;;;;;;;;;;;;;5095107;28;19911;-78
2021/01/06 09:27:06;;;;;;;;;;;;;;;;;;5094862;28;19908;-77
2021/01/06 09:29:31;;;;;;;;;;;;;;;;;;5095006;28;19904;-78
2021/01/06 09:31:57;;;;;;;;;;;;;;;;;;5094805;28;19908;-78
2021/01/06 09:34:23;;;;;;;;;;;;;;;;;;5094194;28;19916;-78
2021/01/06 09:36:49;;;;;;;;;;;;;;;;;;5094747;28;19910;-77
2021/01/06 09:39:15;;;;;;;;;;;;;;;;;;5095186;28;19995;-80
2021/01/06 09:41:41;;;;;;;;;;;;;;;;;;5094681;28;19904;-80
2021/01/06 09:44:07;;;;;;;;;;;;;;;;;;5095083;28;19908;-80
2021/01/06 09:46:33;;;;;;;;;;;;;;;;;;5095115;28;19947;-77
2021/01/06 09:48:59;;;;;;;;;;;;;;;;;;5095048;28;19911;-78
2021/01/06 09:51:25;;;;;;;;;;;;;;;;;;5094832;28;19950;-77
2021/01/06 09:53:51;;;;;;;;;;;;;;;;;;5093694;28;19914;-77
2021/01/06 09:56:17;;;;;;;;;;;;;;;;;;5094483;28;19904;-79
2021/01/06 09:58:43;;;;;;;;;;;;;;;;;;5094408;28;19915;-79
2021/01/06 10:01:09;;;;;;;;;;;;;;;;;;5094424;28;19900;-77
2021/01/06 10:03:35;;;;;;;;;;;;;;;;;;5094337;28;20364;-77
2021/01/06 10:06:01;;;;;;;;;;;;;;;;;;5093783;28;19915;-79
2021/01/06 10:08:27;;;;;;;;;;;;;;;;;;5094319;28;19904;-79
2021/01/06 10:10:53;;;;;;;;;;;;;;;;;;5094140;28;20420;-77
2021/01/06 10:13:19;;;;;;;;;;;;;;;;;;5092883;28;19989;-77
2021/01/06 10:15:45;;;;;;;;;;;;;;;;;;5093305;28;19924;-77
2021/01/06 10:18:11;;;;;;;;;;;;;;;;;;5093454;28;20365;-78
2021/01/06 10:20:37;;;;;;;;;;;;;;;;;;5094116;28;19912;-77
2021/01/06 10:23:03;;;;;;;;;;;;;;;;;;5093851;28;19919;-77
2021/01/06 10:25:28;;;;;;;;;;;;;;;;;;5094209;28;19908;-78
2021/01/06 10:27:54;;;;;;;;;;;;;;;;;;5094234;28;19957;-76
2021/01/06 10:30:20;;;;;;;;;;;;;;;;;;5094097;28;20002;-78
2021/01/06 10:32:46;;;;;;;;;;;;;;;;;;5093947;28;19900;-76
2021/01/06 10:35:12;;;;;;;;;;;;;;;;;;5093879;28;19916;-77
2021/01/06 10:37:38;;;;;;;;;;;;;;;;;;5094272;28;20419;-78
2021/01/06 10:40:04;;;;;;;;;;;;;;;;;;5093411;28;20282;-76
2021/01/06 10:42:32;;;;;;;;;;;;;;;;;;5093913;28;20310;-78
2021/01/06 10:44:59;;;;;;;;;;;;;;;;;;5093586;28;20363;-78
2021/01/06 10:47:25;;;;;;;;;;;;;;;;;;5093184;28;20267;-77
2021/01/06 10:49:51;;;;;;;;;;;;;;;;;;5093520;28;19904;-76
2021/01/06 10:52:17;;;;;;;;;;;;;;;;;;5092814;28;20000;-78
2021/01/06 10:54:43;;;;;;;;;;;;;;;;;;5092905;28;19916;-79
2021/01/06 10:57:09;;;;;;;;;;;;;;;;;;5093359;28;19957;-79
2021/01/06 10:59:34;;;;;;;;;;;;;;;;;;5092821;28;19908;-76
2021/01/06 11:02:01;;;;;;;;;;;;;;;;;;5093547;28;19904;-79
2021/01/06 11:04:31;;;;;;;;;;;;;;;;;;5093532;28;19990;-76
2021/01/06 11:06:57;;;;;;;;;;;;;;;;;;5093240;28;19942;-76
2021/01/06 11:09:23;;;;;;;;;;;;;;;;;;5093162;28;19923;-78
2021/01/06 11:11:49;;;;;;;;;;;;;;;;;;5093346;28;20279;-78
2021/01/06 11:14:15;;;;;;;;;;;;;;;;;;5093053;28;19915;-77
2021/01/06 11:16:40;;;;;;;;;;;;;;;;;;5093301;28;19908;-76
2021/01/06 11:19:09;;;;;;;;;;;;;;;;;;5091698;28;19904;-77
2021/01/06 11:24:20;;;;;;;;;;;;;;;;;;5093106;28;19919;-79
2021/01/06 11:26:46;;;;;;;;;;;;;;;;;;5093055;28;19904;-79
2021/01/06 11:29:12;;;;;;;;;;;;;;;;;;5092005;28;19960;-78
2021/01/06 11:31:38;;;;;;;;;;;;;;;;;;5092553;28;19904;-77
2021/01/06 11:34:04;;;;;;;;;;;;;;;;;;5092680;28;20010;-76
2021/01/06 11:36:29;;;;;;;;;;;;;;;;;;5093028;28;19908;-79
2021/01/06 11:38:55;;;;;;;;;;;;;;;;;;5090461;28;19940;-77
2021/01/06 11:41:21;;;;;;;;;;;;;;;;;;5093099;28;19962;-79
2021/01/06 11:43:47;;;;;;;;;;;;;;;;;;5093056;28;19911;-76
2021/01/06 11:46:13;;;;;;;;;;;;;;;;;;5092625;28;19908;-77
2021/01/06 11:48:39;;;;;;;;;;;;;;;;;;5092965;28;19904;-77
2021/01/06 11:51:05;;;;;;;;;;;;;;;;;;5092610;28;19904;-78
2021/01/06 11:53:31;;;;;;;;;;;;;;;;;;5092920;28;19908;-77
2021/01/06 11:55:57;;;;;;;;;;;;;;;;;;5092632;28;19919;-78
2021/01/06 11:58:24;;;;;;;;;;;;;;;;;;5093917;28;19954;-76
2021/01/06 12:00:49;;;;;;;;;;;;;;;;;;5097229;28;19908;-79
2021/01/06 12:03:15;;;;;;;;;;;;;;;;;;5095664;28;20351;-75
2021/01/06 12:05:41;;;;;;;;;;;;;;;;;;5096807;28;20638;-76
2021/01/06 12:08:09;;;;;;;;;;;;;;;;;;5096667;28;20251;-76
2021/01/06 12:10:35;;;;;;;;;;;;;;;;;;5096482;28;20041;-78
2021/01/06 12:13:01;;;;;;;;;;;;;;;;;;5095516;28;19955;-76
2021/01/06 12:15:27;;;;;;;;;;;;;;;;;;5096487;28;19919;-77
2021/01/06 12:17:53;;;;;;;;;;;;;;;;;;5096717;28;20290;-77
2021/01/06 12:20:19;;;;;;;;;;;;;;;;;;5096313;28;20347;-76
2021/01/06 12:22:45;;;;;;;;;;;;;;;;;;5096770;28;19912;-77
2021/01/06 12:25:10;;;;;;;;;;;;;;;;;;5096533;28;19907;-77
2021/01/06 12:27:36;;;;;;;;;;;;;;;;;;5096618;28;19904;-76
2021/01/06 12:30:02;;;;;;;;;;;;;;;;;;5096506;28;20522;-76
2021/01/06 12:32:28;;;;;;;;;;;;;;;;;;5096218;28;19904;-76
2021/01/06 12:34:54;;;;;;;;;;;;;;;;;;5096416;28;19912;-76
2021/01/06 12:37:20;;;;;;;;;;;;;;;;;;5096178;28;19908;-77
2021/01/06 12:39:46;;;;;;;;;;;;;;;;;;5095942;28;20003;-76
2021/01/06 12:42:12;;;;;;;;;;;;;;;;;;5103990;28;19915;-76
2021/01/06 12:44:43;;;;;;;;;;;;;;;;;;5096159;28;19904;-78
2021/01/06 12:47:09;;;;;;;;;;;;;;;;;;5096028;28;20267;-77
2021/01/06 12:49:35;;;;;;;;;;;;;;;;;;5095379;28;19915;-78
2021/01/06 12:52:01;;;;;;;;;;;;;;;;;;5095918;28;19904;-76
2021/01/06 12:54:26;;;;;;;;;;;;;;;;;;5095642;28;19912;-75
2021/01/06 12:56:52;;;;;;;;;;;;;;;;;;5096047;28;20010;-77
2021/01/06 12:59:18;;;;;;;;;;;;;;;;;;5095773;28;19904;-77
2021/01/06 13:01:44;;;;;;;;;;;;;;;;;;5095682;28;19904;-78
2021/01/06 13:04:10;;;;;;;;;;;;;;;;;;5095686;28;19904;-77
2021/01/06 13:06:36;;;;;;;;;;;;;;;;;;5095741;28;19950;-75
2021/01/06 13:09:02;;;;;;;;;;;;;;;;;;5095114;28;20360;-77
2021/01/06 13:11:28;;;;;;;;;;;;;;;;;;5095354;28;19985;-77
2021/01/06 13:13:55;;;;;;;;;;;;;;;;;;5095462;28;20248;-77
2021/01/06 13:16:21;;;;;;;;;;;;;;;;;;5095558;28;19959;-76
2021/01/06 13:18:47;;;;;;;;;;;;;;;;;;5095400;28;19904;-76
2021/01/06 13:21:13;;;;;;;;;;;;;;;;;;5095428;28;20354;-77
2021/01/06 13:23:39;;;;;;;;;;;;;;;;;;5095308;28;20287;-77
2021/01/06 13:26:05;;;;;;;;;;;;;;;;;;5095334;28;20354;-76
2021/01/06 13:28:31;;;;;;;;;;;;;;;;;;5095054;28;20243;-77
2021/01/06 13:30:57;;;;;;;;;;;;;;;;;;5095125;28;20275;-78
2021/01/06 13:33:23;;;;;;;;;;;;;;;;;;5095238;28;19904;-78
2021/01/06 13:35:49;;;;;;;;;;;;;;;;;;5094926;28;20351;-77
2021/01/06 13:38:15;;;;;;;;;;;;;;;;;;5095215;28;19962;-75
2021/01/06 13:40:41;;;;;;;;;;;;;;;;;;5094916;28;19950;-75
2021/01/06 13:43:06;;;;;;;;;;;;;;;;;;5095128;28;19904;-76
2021/01/06 13:45:32;;;;;;;;;;;;;;;;;;5095082;28;20351;-76
2021/01/06 13:47:58;;;;;;;;;;;;;;;;;;5094809;28;20270;-79
2021/01/06 13:50:24;;;;;;;;;;;;;;;;;;5095017;28;19908;-76
2021/01/06 13:52:50;;;;;;;;;;;;;;;;;;5094730;28;19990;-77
2021/01/06 13:55:16;;;;;;;;;;;;;;;;;;5094836;28;19916;-78
2021/01/06 13:57:42;;;;;;;;;;;;;;;;;;5094775;28;19904;-76
2021/01/06 14:00:08;;;;;;;;;;;;;;;;;;5094598;28;19911;-76
2021/01/06 14:02:34;;;;;;;;;;;;;;;;;;5094825;28;19904;-77
2021/01/06 14:05:00;;;;;;;;;;;;;;;;;;5094501;28;19904;-75
2021/01/06 14:07:26;;;;;;;;;;;;;;;;;;5094765;28;19908;-76
2021/01/06 14:09:53;;;;;;;;;;;;;;;;;;5094181;28;19923;-76
2021/01/06 14:12:19;;;;;;;;;;;;;;;;;;5094495;28;19927;-77
2021/01/06 14:14:46;;;;;;;;;;;;;;;;;;5094415;28;20355;-75
2021/01/06 14:17:12;;;;;;;;;;;;;;;;;;5094060;28;19983;-75
2021/01/06 14:19:38;;;;;;;;;;;;;;;;;;5094401;28;19936;-75
2021/01/06 14:22:04;;;;;;;;;;;;;;;;;;5093041;28;19912;-77
2021/01/06 14:24:30;;;;;;;;;;;;;;;;;;5094257;28;19944;-75
2021/01/06 14:26:56;;;;;;;;;;;;;;;;;;5093853;28;19904;-78
2021/01/06 14:29:22;;;;;;;;;;;;;;;;;;5094217;28;19911;-77
2021/01/06 14:31:47;;;;;;;;;;;;;;;;;;5094108;28;20362;-76
2021/01/06 14:34:14;;;;;;;;;;;;;;;;;;5093695;28;20392;-77
2021/01/06 14:36:41;;;;;;;;;;;;;;;;;;5094080;28;20370;-77
2021/01/06 14:39:07;;;;;;;;;;;;;;;;;;5093805;28;20299;-78
2021/01/06 14:41:33;;;;;;;;;;;;;;;;;;5093881;28;19973;-75
2021/01/06 14:43:58;;;;;;;;;;;;;;;;;;5092495;28;20347;-78
2021/01/06 14:46:24;;;;;;;;;;;;;;;;;;5092272;28;19900;-76
2021/01/06 14:48:50;;;;;;;;;;;;;;;;;;5093895;28;19905;-76
2021/01/06 14:51:17;;;;;;;;;;;;;;;;;;5093520;28;20397;-78
2021/01/06 14:53:43;;;;;;;;;;;;;;;;;;5093752;28;19904;-79
2021/01/06 14:56:09;;;;;;;;;;;;;;;;;;5093132;28;19918;-75
2021/01/06 14:58:35;;;;;;;;;;;;;;;;;;5093741;28;19962;-78
2021/01/06 15:01:01;;;;;;;;;;;;;;;;;;5093639;28;20370;-77
2021/01/06 15:03:26;;;;;;;;;;;;;;;;;;5092015;28;20344;-77
2021/01/06 15:05:52;;;;;;;;;;;;;;;;;;5093460;28;20106;-79
2021/01/06 15:08:18;;;;;;;;;;;;;;;;;;5093218;28;19949;-76
2021/01/06 15:10:44;;;;;;;;;;;;;;;;;;5093199;28;19998;-79
2021/01/06 15:13:10;;;;;;;;;;;;;;;;;;5093359;28;19904;-78
2021/01/06 15:15:38;;;;;;;;;;;;;;;;;;5093013;28;19912;-77
2021/01/06 15:18:03;;;;;;;;;;;;;;;;;;5093338;28;19915;-78
2021/01/06 15:20:29;;;;;;;;;;;;;;;;;;5092953;28;20282;-78
2021/01/06 15:22:55;;;;;;;;;;;;;;;;;;5093237;28;19969;-76
2021/01/06 15:25:21;;;;;;;;;;;;;;;;;;5093005;28;19908;-76
2021/01/06 15:27:47;;;;;;;;;;;;;;;;;;5093389;28;19930;-77
2021/01/06 15:30:13;;;;;;;;;;;;;;;;;;5092973;28;20377;-78
2021/01/06 15:32:39;;;;;;;;;;;;;;;;;;5092982;28;20438;-76
2021/01/06 15:35:05;;;;;;;;;;;;;;;;;;5093061;28;19994;-76
2021/01/06 15:37:31;;;;;;;;;;;;;;;;;;5092738;28;19904;-77
2021/01/06 15:39:57;;;;;;;;;;;;;;;;;;5093007;28;19949;-78
2021/01/06 15:42:23;;;;;;;;;;;;;;;;;;5092741;28;20442;-77
2021/01/06 15:44:49;;;;;;;;;;;;;;;;;;5093092;28;20407;-77
2021/01/06 15:47:15;;;;;;;;;;;;;;;;;;5092931;28;20325;-79
2021/01/06 15:49:41;;;;;;;;;;;;;;;;;;5092663;28;20244;-79
2021/01/06 15:52:07;;;;;;;;;;;;;;;;;;5092795;28;20342;-77
2021/01/06 15:54:33;;;;;;;;;;;;;;;;;;5092349;28;20303;-78
2021/01/06 15:56:59;;;;;;;;;;;;;;;;;;5093306;28;20007;-78
2021/01/06 15:59:25;;;;;;;;;;;;;;;;;;5093875;28;19907;-79
2021/01/06 16:01:50;;;;;;;;;;;;;;;;;;5093813;28;19911;-79
2021/01/06 16:04:16;;;;;;;;;;;;;;;;;;5093828;28;19900;-77
2021/01/06 16:06:42;;;;;;;;;;;;;;;;;;5093847;28;19958;-77
2021/01/06 16:09:08;;;;;;;;;;;;;;;;;;5093381;28;19916;-79
2021/01/06 16:11:34;;;;;;;;;;;;;;;;;;5093875;28;19910;-79
2021/01/06 16:14:00;;;;;;;;;;;;;;;;;;5093859;28;19911;-77
2021/01/06 16:16:26;;;;;;;;;;;;;;;;;;5093872;28;19962;-79
2021/01/06 16:18:53;;;;;;;;;;;;;;;;;;5093753;28;20287;-79
2021/01/06 16:21:18;;;;;;;;;;;;;;;;;;5093593;28;20297;-77
2021/01/06 16:23:44;;;;;;;;;;;;;;;;;;5093669;28;19912;-77
2021/01/06 16:26:10;;;;;;;;;;;;;;;;;;5093660;28;19995;-77
2021/01/06 16:28:36;;;;;;;;;;;;;;;;;;5093508;28;20390;-77
2021/01/06 16:31:11;;;;;;;;;;;;;;;;;;5093174;28;20371;-77
2021/01/06 16:33:37;;;;;;;;;;;;;;;;;;5092130;28;19904;-77
2021/01/06 16:36:03;;;;;;;;;;;;;;;;;;5093620;28;19923;-78
2021/01/06 16:38:29;;;;;;;;;;;;;;;;;;5093632;28;19904;-78
2021/01/06 16:40:55;;;;;;;;;;;;;;;;;;5093579;28;20294;-76